sensor_id;sensor_type;location;lat;lon;timestamp;pressure;altitude;pressure_sealevel;temperature;humidity
75717;BME280;64333;50.138;14.332;2022-12-22T00:02:24;97785.13;;;4.69;100.00
75717;BME280;64333;50.138;14.332;2022-12-22T00:07:55;97763.31;;;4.85;100.00
75717;BME280;64333;50.138;14.332;2022-12-22T00:10:39;97771.09;;;4.82;100.00
75717;BME280;64333;50.138;14.332;2022-12-22T00:13:23;97769.22;;;4.87;100.00
75717;BME280;64333;50.138;14.332;2022-12-22T00:16:07;97778.56;;;4.88;100.00
75717;BME280;64333;50.138;14.332;2022-12-22T00:18:51;97785.81;;;5.03;100.00
75717;BME280;64333;50.138;14.332;2022-12-22T00:21:35;97780.69;;;5.03;99.36
75717;BME280;64333;50.138;14.332;2022-12-22T00:24:19;97775.31;;;4.83;93.54
75717;BME280;64333;50.138;14.332;2022-12-22T00:27:03;97765.94;;;4.55;91.28
75717;BME280;64333;50.138;14.332;2022-12-22T00:29:47;97773.88;;;4.46;95.26
75717;BME280;64333;50.138;14.332;2022-12-22T00:32:34;97767.91;;;4.45;95.29
75717;BME280;64333;50.138;14.332;2022-12-22T00:35:24;97753.59;;;4.40;95.19
75717;BME280;64333;50.138;14.332;2022-12-22T00:38:26;97750.19;;;4.39;96.79
75717;BME280;64333;50.138;14.332;2022-12-22T00:41:10;97745.06;;;4.39;96.21
75717;BME280;64333;50.138;14.332;2022-12-22T00:43:54;97751.97;;;4.36;96.81
75717;BME280;64333;50.138;14.332;2022-12-22T00:46:39;97757.41;;;3.93;95.56
75717;BME280;64333;50.138;14.332;2022-12-22T00:49:25;97758.72;;;4.08;96.39
75717;BME280;64333;50.138;14.332;2022-12-22T00:52:11;97759.38;;;4.14;96.56
75717;BME280;64333;50.138;14.332;2022-12-22T00:54:55;97755.72;;;4.24;96.34
75717;BME280;64333;50.138;14.332;2022-12-22T00:57:40;97750.69;;;4.21;93.83
75717;BME280;64333;50.138;14.332;2022-12-22T01:00:25;97751.78;;;4.13;94.98
75717;BME280;64333;50.138;14.332;2022-12-22T01:03:10;97746.97;;;4.02;94.95
75717;BME280;64333;50.138;14.332;2022-12-22T01:05:54;97748.72;;;4.00;95.41
75717;BME280;64333;50.138;14.332;2022-12-22T01:08:39;97742.25;;;3.87;95.05
75717;BME280;64333;50.138;14.332;2022-12-22T01:11:23;97747.19;;;3.61;96.35
75717;BME280;64333;50.138;14.332;2022-12-22T01:14:10;97750.38;;;3.36;97.98
75717;BME280;64333;50.138;14.332;2022-12-22T01:16:54;97753.03;;;3.31;99.61
75717;BME280;64333;50.138;14.332;2022-12-22T01:19:38;97755.50;;;3.34;99.97
75717;BME280;64333;50.138;14.332;2022-12-22T01:22:22;97755.56;;;3.33;100.00
75717;BME280;64333;50.138;14.332;2022-12-22T01:25:12;97749.75;;;3.26;99.88
75717;BME280;64333;50.138;14.332;2022-12-22T01:27:56;97745.78;;;3.15;100.00
75717;BME280;64333;50.138;14.332;2022-12-22T01:30:41;97739.16;;;3.08;100.00
75717;BME280;64333;50.138;14.332;2022-12-22T01:33:25;97726.44;;;3.06;100.00
75717;BME280;64333;50.138;14.332;2022-12-22T01:36:09;97735.13;;;2.98;100.00
75717;BME280;64333;50.138;14.332;2022-12-22T01:38:53;97728.19;;;3.04;100.00
75717;BME280;64333;50.138;14.332;2022-12-22T01:41:37;97729.84;;;3.05;100.00
75717;BME280;64333;50.138;14.332;2022-12-22T01:44:21;97719.69;;;3.04;100.00
75717;BME280;64333;50.138;14.332;2022-12-22T01:47:33;97717.00;;;3.08;100.00
75717;BME280;64333;50.138;14.332;2022-12-22T01:50:32;97700.00;;;3.09;100.00
75717;BME280;64333;50.138;14.332;2022-12-22T01:53:25;97693.41;;;3.00;100.00
75717;BME280;64333;50.138;14.332;2022-12-22T01:56:11;97693.63;;;2.91;100.00
75717;BME280;64333;50.138;14.332;2022-12-22T01:58:55;97687.03;;;2.83;100.00
75717;BME280;64333;50.138;14.332;2022-12-22T02:01:41;97680.47;;;2.73;100.00
75717;BME280;64333;50.138;14.332;2022-12-22T02:04:28;97671.97;;;2.72;100.00
75717;BME280;64333;50.138;14.332;2022-12-22T02:10:27;97668.56;;;2.72;100.00
75717;BME280;64333;50.138;14.332;2022-12-22T02:13:32;97669.28;;;2.78;100.00
75717;BME280;64333;50.138;14.332;2022-12-22T02:16:36;97672.63;;;2.80;100.00
75717;BME280;64333;50.138;14.332;2022-12-22T02:22:14;97669.44;;;2.72;100.00
75717;BME280;64333;50.138;14.332;2022-12-22T02:25:08;97661.13;;;2.64;100.00
75717;BME280;64333;50.138;14.332;2022-12-22T02:27:55;97667.03;;;2.66;100.00
75717;BME280;64333;50.138;14.332;2022-12-22T02:30:40;97666.91;;;2.71;100.00
75717;BME280;64333;50.138;14.332;2022-12-22T02:33:25;97661.75;;;2.74;100.00
75717;BME280;64333;50.138;14.332;2022-12-22T02:36:15;97672.63;;;2.80;100.00
75717;BME280;64333;50.138;14.332;2022-12-22T02:39:26;97670.94;;;2.81;100.00
75717;BME280;64333;50.138;14.332;2022-12-22T02:48:50;97658.81;;;2.54;100.00
75717;BME280;64333;50.138;14.332;2022-12-22T02:51:42;97663.34;;;2.41;100.00
75717;BME280;64333;50.138;14.332;2022-12-22T02:54:28;97662.56;;;2.38;100.00
75717;BME280;64333;50.138;14.332;2022-12-22T02:57:16;97678.84;;;2.31;100.00
75717;BME280;64333;50.138;14.332;2022-12-22T03:00:01;97675.72;;;2.18;100.00
75717;BME280;64333;50.138;14.332;2022-12-22T03:02:45;97667.50;;;2.06;100.00
75717;BME280;64333;50.138;14.332;2022-12-22T03:05:29;97689.50;;;2.08;100.00
75717;BME280;64333;50.138;14.332;2022-12-22T03:08:13;97693.75;;;2.09;100.00
75717;BME280;64333;50.138;14.332;2022-12-22T03:10:57;97698.56;;;2.23;100.00
75717;BME280;64333;50.138;14.332;2022-12-22T03:13:40;97696.31;;;2.49;100.00
75717;BME280;64333;50.138;14.332;2022-12-22T03:16:24;97683.31;;;2.59;100.00
75717;BME280;64333;50.138;14.332;2022-12-22T03:19:08;97686.19;;;2.82;100.00
75717;BME280;64333;50.138;14.332;2022-12-22T03:21:52;97674.81;;;2.95;100.00
75717;BME280;64333;50.138;14.332;2022-12-22T03:24:36;97663.44;;;3.08;100.00
75717;BME280;64333;50.138;14.332;2022-12-22T03:27:20;97654.72;;;3.18;100.00
75717;BME280;64333;50.138;14.332;2022-12-22T03:29:45;97643.22;;;3.34;100.00
75717;BME280;64333;50.138;14.332;2022-12-22T03:32:11;97633.69;;;3.42;100.00
75717;BME280;64333;50.138;14.332;2022-12-22T03:34:36;97636.88;;;3.50;100.00
75717;BME280;64333;50.138;14.332;2022-12-22T03:37:01;97620.53;;;3.56;100.00
75717;BME280;64333;50.138;14.332;2022-12-22T03:39:27;97614.50;;;3.58;100.00
75717;BME280;64333;50.138;14.332;2022-12-22T03:41:52;97613.75;;;3.55;100.00
75717;BME280;64333;50.138;14.332;2022-12-22T03:44:36;97605.59;;;3.42;100.00
75717;BME280;64333;50.138;14.332;2022-12-22T03:47:20;97603.06;;;3.42;100.00
75717;BME280;64333;50.138;14.332;2022-12-22T03:49:45;97599.78;;;3.37;100.00
75717;BME280;64333;50.138;14.332;2022-12-22T03:52:10;97593.75;;;3.40;100.00
75717;BME280;64333;50.138;14.332;2022-12-22T03:54:36;97586.88;;;3.42;100.00
75717;BME280;64333;50.138;14.332;2022-12-22T03:57:01;97592.72;;;3.47;100.00
75717;BME280;64333;50.138;14.332;2022-12-22T03:59:26;97579.06;;;3.48;100.00
75717;BME280;64333;50.138;14.332;2022-12-22T04:01:53;97587.38;;;3.54;100.00
75717;BME280;64333;50.138;14.332;2022-12-22T04:04:21;97580.53;;;3.56;100.00
75717;BME280;64333;50.138;14.332;2022-12-22T04:06:47;97583.13;;;3.55;100.00
75717;BME280;64333;50.138;14.332;2022-12-22T04:09:12;97581.19;;;3.63;100.00
75717;BME280;64333;50.138;14.332;2022-12-22T04:11:38;97579.44;;;3.65;100.00
75717;BME280;64333;50.138;14.332;2022-12-22T04:14:22;97579.44;;;3.65;100.00
75717;BME280;64333;50.138;14.332;2022-12-22T04:16:47;97566.00;;;3.58;100.00
75717;BME280;64333;50.138;14.332;2022-12-22T04:19:13;97568.47;;;3.61;100.00
75717;BME280;64333;50.138;14.332;2022-12-22T04:21:38;97551.72;;;3.53;100.00
75717;BME280;64333;50.138;14.332;2022-12-22T04:24:04;97553.63;;;3.45;100.00
75717;BME280;64333;50.138;14.332;2022-12-22T04:26:30;97549.56;;;3.38;100.00
75717;BME280;64333;50.138;14.332;2022-12-22T04:28:56;97555.41;;;3.41;100.00
75717;BME280;64333;50.138;14.332;2022-12-22T04:31:21;97541.97;;;3.36;100.00
75717;BME280;64333;50.138;14.332;2022-12-22T04:33:48;97559.69;;;3.41;100.00
75717;BME280;64333;50.138;14.332;2022-12-22T04:36:14;97566.28;;;3.49;100.00
75717;BME280;64333;50.138;14.332;2022-12-22T04:38:39;97567.97;;;3.49;100.00
75717;BME280;64333;50.138;14.332;2022-12-22T04:41:05;97574.50;;;3.59;100.00
75717;BME280;64333;50.138;14.332;2022-12-22T04:43:31;97562.59;;;3.58;100.00
75717;BME280;64333;50.138;14.332;2022-12-22T04:45:56;97567.59;;;3.62;100.00
75717;BME280;64333;50.138;14.332;2022-12-22T04:48:23;97575.16;;;3.65;100.00
75717;BME280;64333;50.138;14.332;2022-12-22T04:50:50;97564.91;;;3.67;100.00
75717;BME280;64333;50.138;14.332;2022-12-22T04:53:15;97566.72;;;3.63;99.18
75717;BME280;64333;50.138;14.332;2022-12-22T04:55:45;97562.66;;;3.56;98.10
75717;BME280;64333;50.138;14.332;2022-12-22T04:58:11;97563.50;;;3.57;97.25
75717;BME280;64333;50.138;14.332;2022-12-22T05:00:36;97559.44;;;3.50;96.14
75717;BME280;64333;50.138;14.332;2022-12-22T05:03:01;97570.66;;;3.44;97.89
75717;BME280;64333;50.138;14.332;2022-12-22T05:05:27;97577.34;;;3.48;98.36
75717;BME280;64333;50.138;14.332;2022-12-22T05:07:52;97565.41;;;3.50;98.78
75717;BME280;64333;50.138;14.332;2022-12-22T05:10:17;97552.22;;;3.64;99.70
75717;BME280;64333;50.138;14.332;2022-12-22T05:12:43;97552.91;;;3.70;100.00
75717;BME280;64333;50.138;14.332;2022-12-22T05:15:20;97555.97;;;3.81;100.00
75717;BME280;64333;50.138;14.332;2022-12-22T05:17:46;97553.19;;;3.89;99.84
75717;BME280;64333;50.138;14.332;2022-12-22T05:20:11;97530.34;;;3.84;99.21
75717;BME280;64333;50.138;14.332;2022-12-22T05:22:37;97538.19;;;3.78;99.53
75717;BME280;64333;50.138;14.332;2022-12-22T05:25:02;97531.16;;;3.85;100.00
75717;BME280;64333;50.138;14.332;2022-12-22T05:27:28;97527.50;;;3.93;100.00
75717;BME280;64333;50.138;14.332;2022-12-22T05:29:53;97514.34;;;4.07;100.00
75717;BME280;64333;50.138;14.332;2022-12-22T05:32:18;97517.19;;;4.24;100.00
75717;BME280;64333;50.138;14.332;2022-12-22T05:34:44;97503.50;;;4.26;100.00
75717;BME280;64333;50.138;14.332;2022-12-22T05:37:09;97503.09;;;4.38;100.00
75717;BME280;64333;50.138;14.332;2022-12-22T05:39:35;97498.78;;;4.40;100.00
75717;BME280;64333;50.138;14.332;2022-12-22T05:42:00;97480.06;;;4.40;99.97
75717;BME280;64333;50.138;14.332;2022-12-22T05:44:25;97486.69;;;4.45;99.29
75717;BME280;64333;50.138;14.332;2022-12-22T05:46:51;97482.34;;;4.47;98.77
75717;BME280;64333;50.138;14.332;2022-12-22T05:49:17;97481.38;;;4.51;99.26
75717;BME280;64333;50.138;14.332;2022-12-22T05:51:43;97476.16;;;4.54;98.73
75717;BME280;64333;50.138;14.332;2022-12-22T05:54:09;97474.28;;;4.59;98.41
75717;BME280;64333;50.138;14.332;2022-12-22T05:56:34;97467.50;;;4.58;98.52
75717;BME280;64333;50.138;14.332;2022-12-22T05:59:00;97468.41;;;4.57;98.25
75717;BME280;64333;50.138;14.332;2022-12-22T06:01:25;97468.47;;;4.54;97.69
75717;BME280;64333;50.138;14.332;2022-12-22T06:03:51;97484.97;;;4.46;97.78
75717;BME280;64333;50.138;14.332;2022-12-22T06:06:16;97474.88;;;4.41;98.40
75717;BME280;64333;50.138;14.332;2022-12-22T06:08:41;97474.94;;;4.40;98.72
75717;BME280;64333;50.138;14.332;2022-12-22T06:11:07;97472.28;;;4.43;98.83
75717;BME280;64333;50.138;14.332;2022-12-22T06:13:32;97475.03;;;4.37;98.33
75717;BME280;64333;50.138;14.332;2022-12-22T06:15:57;97465.66;;;4.37;98.54
75717;BME280;64333;50.138;14.332;2022-12-22T06:18:23;97454.69;;;4.34;99.57
75717;BME280;64333;50.138;14.332;2022-12-22T06:20:52;97442.72;;;4.34;99.20
75717;BME280;64333;50.138;14.332;2022-12-22T06:23:18;97439.44;;;4.31;99.54
75717;BME280;64333;50.138;14.332;2022-12-22T06:25:54;97442.69;;;4.36;99.78
75717;BME280;64333;50.138;14.332;2022-12-22T06:28:20;97434.19;;;4.35;99.70
75717;BME280;64333;50.138;14.332;2022-12-22T06:30:47;97439.56;;;4.52;100.00
75717;BME280;64333;50.138;14.332;2022-12-22T06:33:12;97433.94;;;4.67;100.00
75717;BME280;64333;50.138;14.332;2022-12-22T06:35:37;97438.75;;;4.76;99.61
75717;BME280;64333;50.138;14.332;2022-12-22T06:38:03;97435.63;;;4.93;99.44
75717;BME280;64333;50.138;14.332;2022-12-22T06:40:28;97430.75;;;5.08;99.13
75717;BME280;64333;50.138;14.332;2022-12-22T06:42:54;97434.44;;;5.24;98.56
75717;BME280;64333;50.138;14.332;2022-12-22T06:45:36;97426.34;;;5.36;98.27
75717;BME280;64333;50.138;14.332;2022-12-22T06:48:02;97435.31;;;5.46;97.21
75717;BME280;64333;50.138;14.332;2022-12-22T06:50:27;97434.28;;;5.51;96.25
75717;BME280;64333;50.138;14.332;2022-12-22T06:52:53;97444.13;;;5.62;96.65
75717;BME280;64333;50.138;14.332;2022-12-22T06:55:18;97443.81;;;5.69;96.07
75717;BME280;64333;50.138;14.332;2022-12-22T06:57:43;97455.66;;;5.72;95.21
75717;BME280;64333;50.138;14.332;2022-12-22T07:00:09;97446.84;;;5.79;94.84
75717;BME280;64333;50.138;14.332;2022-12-22T07:02:35;97453.59;;;5.83;95.25
75717;BME280;64333;50.138;14.332;2022-12-22T07:05:00;97438.06;;;5.86;94.70
75717;BME280;64333;50.138;14.332;2022-12-22T07:07:26;97427.06;;;5.84;94.86
75717;BME280;64333;50.138;14.332;2022-12-22T07:09:51;97434.63;;;5.87;94.94
75717;BME280;64333;50.138;14.332;2022-12-22T07:12:16;97434.50;;;5.90;94.84
75717;BME280;64333;50.138;14.332;2022-12-22T07:14:41;97436.19;;;5.91;93.97
75717;BME280;64333;50.138;14.332;2022-12-22T07:17:07;97431.72;;;5.96;94.33
75717;BME280;64333;50.138;14.332;2022-12-22T07:19:33;97435.00;;;5.99;93.83
75717;BME280;64333;50.138;14.332;2022-12-22T07:21:58;97417.94;;;5.98;94.12
75717;BME280;64333;50.138;14.332;2022-12-22T07:24:24;97421.94;;;6.05;93.98
75717;BME280;64333;50.138;14.332;2022-12-22T07:26:51;97417.63;;;6.06;93.71
75717;BME280;64333;50.138;14.332;2022-12-22T07:29:16;97415.06;;;6.06;93.73
75717;BME280;64333;50.138;14.332;2022-12-22T07:31:42;97413.41;;;6.05;93.68
75717;BME280;64333;50.138;14.332;2022-12-22T07:34:07;97410.78;;;6.06;93.76
75717;BME280;64333;50.138;14.332;2022-12-22T07:36:33;97400.47;;;6.08;94.11
75717;BME280;64333;50.138;14.332;2022-12-22T07:38:58;97394.56;;;6.06;93.98
75717;BME280;64333;50.138;14.332;2022-12-22T07:41:23;97387.72;;;6.06;93.86
75717;BME280;64333;50.138;14.332;2022-12-22T07:44:07;97402.75;;;6.14;94.48
75717;BME280;64333;50.138;14.332;2022-12-22T07:46:35;97388.38;;;6.11;94.68
75717;BME280;64333;50.138;14.332;2022-12-22T07:49:01;97389.91;;;6.15;94.19
75717;BME280;64333;50.138;14.332;2022-12-22T07:51:45;97375.72;;;6.07;94.45
75717;BME280;64333;50.138;14.332;2022-12-22T07:54:13;97392.25;;;6.20;94.31
75717;BME280;64333;50.138;14.332;2022-12-22T07:56:40;97392.16;;;6.23;94.57
75717;BME280;64333;50.138;14.332;2022-12-22T07:59:05;97392.00;;;6.26;94.35
75717;BME280;64333;50.138;14.332;2022-12-22T08:01:31;97382.84;;;6.20;93.67
75717;BME280;64333;50.138;14.332;2022-12-22T08:03:56;97383.41;;;6.27;93.74
75717;BME280;64333;50.138;14.332;2022-12-22T08:06:22;97376.53;;;6.29;94.18
75717;BME280;64333;50.138;14.332;2022-12-22T08:08:48;97380.34;;;6.39;93.19
75717;BME280;64333;50.138;14.332;2022-12-22T08:11:13;97372.28;;;6.48;92.73
75717;BME280;64333;50.138;14.332;2022-12-22T08:13:38;97380.34;;;6.59;92.37
75717;BME280;64333;50.138;14.332;2022-12-22T08:16:06;97384.06;;;6.72;91.76
75717;BME280;64333;50.138;14.332;2022-12-22T08:18:33;97384.47;;;7.01;89.89
75717;BME280;64333;50.138;14.332;2022-12-22T08:20:59;97388.38;;;7.28;88.83
75717;BME280;64333;50.138;14.332;2022-12-22T08:23:25;97386.22;;;7.38;87.53
75717;BME280;64333;50.138;14.332;2022-12-22T08:26:16;97382.53;;;7.43;87.32
75717;BME280;64333;50.138;14.332;2022-12-22T08:28:51;97376.50;;;7.44;87.59
75717;BME280;64333;50.138;14.332;2022-12-22T08:31:18;97375.88;;;7.39;87.65
75717;BME280;64333;50.138;14.332;2022-12-22T08:33:44;97366.00;;;7.30;88.42
75717;BME280;64333;50.138;14.332;2022-12-22T08:36:10;97365.75;;;6.99;89.29
75717;BME280;64333;50.138;14.332;2022-12-22T08:38:37;97361.03;;;7.09;89.18
75717;BME280;64333;50.138;14.332;2022-12-22T08:41:07;97362.53;;;7.13;89.38
75717;BME280;64333;50.138;14.332;2022-12-22T08:43:33;97360.94;;;7.10;89.23
75717;BME280;64333;50.138;14.332;2022-12-22T08:45:58;97366.72;;;7.15;88.99
75717;BME280;64333;50.138;14.332;2022-12-22T08:48:24;97357.69;;;7.25;87.72
75717;BME280;64333;50.138;14.332;2022-12-22T08:50:49;97359.31;;;7.28;87.62
75717;BME280;64333;50.138;14.332;2022-12-22T08:53:15;97365.63;;;7.21;87.62
75717;BME280;64333;50.138;14.332;2022-12-22T08:55:40;97348.66;;;7.17;88.13
75717;BME280;64333;50.138;14.332;2022-12-22T08:58:05;97345.41;;;7.13;87.19
75717;BME280;64333;50.138;14.332;2022-12-22T09:00:31;97350.53;;;6.95;88.83
75717;BME280;64333;50.138;14.332;2022-12-22T09:02:57;97349.84;;;7.10;89.37
75717;BME280;64333;50.138;14.332;2022-12-22T09:05:22;97352.78;;;7.21;88.69
75717;BME280;64333;50.138;14.332;2022-12-22T09:07:47;97344.34;;;7.17;88.43
75717;BME280;64333;50.138;14.332;2022-12-22T09:10:14;97347.28;;;7.28;88.64
75717;BME280;64333;50.138;14.332;2022-12-22T09:12:39;97349.63;;;7.33;87.11
75717;BME280;64333;50.138;14.332;2022-12-22T09:15:05;97339.81;;;7.59;86.06
75717;BME280;64333;50.138;14.332;2022-12-22T09:17:33;97348.41;;;7.94;83.67
75717;BME280;64333;50.138;14.332;2022-12-22T09:19:58;97348.41;;;7.94;82.51
75717;BME280;64333;50.138;14.332;2022-12-22T09:22:24;97349.19;;;8.13;81.99
75717;BME280;64333;50.138;14.332;2022-12-22T09:24:49;97343.84;;;8.34;81.58
75717;BME280;64333;50.138;14.332;2022-12-22T09:27:14;97340.91;;;8.25;83.16
75717;BME280;64333;50.138;14.332;2022-12-22T09:29:40;97336.03;;;8.53;82.11
75717;BME280;64333;50.138;14.332;2022-12-22T09:32:05;97323.84;;;8.56;82.06
75717;BME280;64333;50.138;14.332;2022-12-22T09:34:31;97328.22;;;8.71;82.51
75717;BME280;64333;50.138;14.332;2022-12-22T09:36:56;97333.91;;;8.93;82.57
75717;BME280;64333;50.138;14.332;2022-12-22T09:39:22;97318.31;;;9.43;79.94
75717;BME280;64333;50.138;14.332;2022-12-22T09:41:50;97323.34;;;9.75;78.87
75717;BME280;64333;50.138;14.332;2022-12-22T09:49:45;97314.69;;;8.51;82.81
75717;BME280;64333;50.138;14.332;2022-12-22T09:52:42;97307.47;;;8.25;83.73
75717;BME280;64333;50.138;14.332;2022-12-22T09:55:43;97296.69;;;8.00;85.40
75717;BME280;64333;50.138;14.332;2022-12-22T09:58:25;97286.69;;;7.94;85.58
75717;BME280;64333;50.138;14.332;2022-12-22T10:01:01;97288.53;;;7.92;85.83
75717;BME280;64333;50.138;14.332;2022-12-22T10:03:42;97284.66;;;7.83;86.12
75717;BME280;64333;50.138;14.332;2022-12-22T10:08:37;97279.78;;;7.43;88.98
75717;BME280;64333;50.138;14.332;2022-12-22T10:11:05;97275.06;;;7.34;89.82
75717;BME280;64333;50.138;14.332;2022-12-22T10:13:32;97269.41;;;7.28;89.71
75717;BME280;64333;50.138;14.332;2022-12-22T10:15:57;97272.88;;;7.27;89.54
75717;BME280;64333;50.138;14.332;2022-12-22T10:18:27;97274.25;;;7.34;90.21
75717;BME280;64333;50.138;14.332;2022-12-22T10:21:13;97273.19;;;7.38;89.18
75717;BME280;64333;50.138;14.332;2022-12-22T10:23:43;97276.75;;;7.35;89.50
75717;BME280;64333;50.138;14.332;2022-12-22T10:26:16;97280.91;;;7.38;90.65
75717;BME280;64333;50.138;14.332;2022-12-22T10:28:46;97279.25;;;7.37;91.04
75717;BME280;64333;50.138;14.332;2022-12-22T10:31:21;97273.94;;;7.23;91.10
75717;BME280;64333;50.138;14.332;2022-12-22T10:33:49;97276.44;;;7.24;91.63
75717;BME280;64333;50.138;14.332;2022-12-22T10:36:21;97271.81;;;7.31;92.94
75717;BME280;64333;50.138;14.332;2022-12-22T10:39:04;97252.88;;;7.33;94.19
75717;BME280;64333;50.138;14.332;2022-12-22T10:41:44;97254.41;;;7.19;95.82
75717;BME280;64333;50.138;14.332;2022-12-22T10:46:40;97263.94;;;7.17;97.98
75717;BME280;64333;50.138;14.332;2022-12-22T10:54:36;97249.28;;;7.19;97.07
75717;BME280;64333;50.138;14.332;2022-12-22T10:57:04;97239.22;;;7.14;97.13
75717;BME280;64333;50.138;14.332;2022-12-22T10:59:46;97227.38;;;7.12;97.07
75717;BME280;64333;50.138;14.332;2022-12-22T11:02:26;97225.03;;;7.07;96.46
75717;BME280;64333;50.138;14.332;2022-12-22T11:04:53;97231.53;;;7.14;97.14
75717;BME280;64333;50.138;14.332;2022-12-22T11:07:19;97223.75;;;7.16;97.74
75717;BME280;64333;50.138;14.332;2022-12-22T11:09:45;97224.50;;;7.18;96.13
75717;BME280;64333;50.138;14.332;2022-12-22T11:15:16;97212.91;;;7.28;95.79
75717;BME280;64333;50.138;14.332;2022-12-22T11:20:50;97204.41;;;7.44;94.57
75717;BME280;64333;50.138;14.332;2022-12-22T11:28:41;97194.50;;;7.88;92.95
75717;BME280;64333;50.138;14.332;2022-12-22T11:34:16;97191.63;;;8.26;89.98
75717;BME280;64333;50.138;14.332;2022-12-22T11:39:14;97176.44;;;8.22;89.05
75717;BME280;64333;50.138;14.332;2022-12-22T11:42:05;97174.97;;;8.16;89.06
75717;BME280;64333;50.138;14.332;2022-12-22T11:44:40;97159.47;;;8.18;88.85
75717;BME280;64333;50.138;14.332;2022-12-22T11:47:20;97171.41;;;8.19;88.67
75717;BME280;64333;50.138;14.332;2022-12-22T11:50:20;97154.31;;;8.35;88.55
75717;BME280;64333;50.138;14.332;2022-12-22T12:23:05;97126.81;;;11.72;73.46
75717;BME280;64333;50.138;14.332;2022-12-22T12:28:16;97131.94;;;12.60;68.85
75717;BME280;64333;50.138;14.332;2022-12-22T12:30:57;97125.09;;;13.65;65.59
75717;BME280;64333;50.138;14.332;2022-12-22T12:33:43;97116.13;;;13.11;66.57
75717;BME280;64333;50.138;14.332;2022-12-22T12:41:40;97119.31;;;13.73;63.46
75717;BME280;64333;50.138;14.332;2022-12-22T12:44:15;97125.53;;;13.59;63.90
75717;BME280;64333;50.138;14.332;2022-12-22T12:52:07;97124.03;;;13.33;64.74
75717;BME280;64333;50.138;14.332;2022-12-22T12:54:48;97129.38;;;13.43;63.99
75717;BME280;64333;50.138;14.332;2022-12-22T12:57:49;97113.34;;;13.14;64.53
75717;BME280;64333;50.138;14.332;2022-12-22T13:05:49;97124.13;;;12.36;67.13
75717;BME280;64333;50.138;14.332;2022-12-22T13:08:21;97108.88;;;12.44;66.43
75717;BME280;64333;50.138;14.332;2022-12-22T13:21:15;97134.22;;;11.39;70.31
75717;BME280;64333;50.138;14.332;2022-12-22T13:23:56;97112.75;;;10.86;72.91
75717;BME280;64333;50.138;14.332;2022-12-22T13:26:35;97108.16;;;10.77;73.81
75717;BME280;64333;50.138;14.332;2022-12-22T13:29:18;97109.09;;;11.02;72.11
75717;BME280;64333;50.138;14.332;2022-12-22T13:32:18;97115.34;;;11.76;70.12
75717;BME280;64333;50.138;14.332;2022-12-22T13:34:59;97117.63;;;11.81;69.06
75717;BME280;64333;50.138;14.332;2022-12-22T13:37:27;97121.63;;;11.47;70.47
75717;BME280;64333;50.138;14.332;2022-12-22T13:40:19;97116.59;;;11.19;70.91
75717;BME280;64333;50.138;14.332;2022-12-22T13:45:40;97116.34;;;10.83;72.57
75717;BME280;64333;50.138;14.332;2022-12-22T13:48:27;97128.13;;;10.61;73.64
75717;BME280;64333;50.138;14.332;2022-12-22T13:51:03;97123.03;;;10.60;73.74
75717;BME280;64333;50.138;14.332;2022-12-22T13:53:34;97125.72;;;10.72;73.82
75717;BME280;64333;50.138;14.332;2022-12-22T13:56:00;97124.69;;;10.75;73.94
75717;BME280;64333;50.138;14.332;2022-12-22T13:58:29;97111.19;;;10.57;74.28
75717;BME280;64333;50.138;14.332;2022-12-22T14:03:36;97108.63;;;10.01;77.11
75717;BME280;64333;50.138;14.332;2022-12-22T14:06:01;97115.06;;;9.80;77.15
75717;BME280;64333;50.138;14.332;2022-12-22T14:08:27;97107.22;;;9.68;77.57
75717;BME280;64333;50.138;14.332;2022-12-22T14:10:54;97103.78;;;9.53;79.31
75717;BME280;64333;50.138;14.332;2022-12-22T14:13:26;97103.69;;;9.41;79.28
75717;BME280;64333;50.138;14.332;2022-12-22T14:16:01;97099.53;;;9.38;80.08
75717;BME280;64333;50.138;14.332;2022-12-22T14:18:30;97104.38;;;9.29;80.42
75717;BME280;64333;50.138;14.332;2022-12-22T14:20:57;97101.44;;;9.21;81.01
75717;BME280;64333;50.138;14.332;2022-12-22T14:23:29;97095.69;;;9.16;80.57
75717;BME280;64333;50.138;14.332;2022-12-22T14:25:57;97098.63;;;9.10;81.31
75717;BME280;64333;50.138;14.332;2022-12-22T14:28:26;97090.91;;;9.10;81.01
75717;BME280;64333;50.138;14.332;2022-12-22T14:30:54;97088.13;;;9.13;81.00
75717;BME280;64333;50.138;14.332;2022-12-22T14:38:45;97095.63;;;9.17;81.39
75717;BME280;64333;50.138;14.332;2022-12-22T14:41:20;97100.78;;;9.17;80.80
75717;BME280;64333;50.138;14.332;2022-12-22T14:44:06;97080.81;;;9.21;80.99
75717;BME280;64333;50.138;14.332;2022-12-22T14:46:37;97092.44;;;9.28;81.13
75717;BME280;64333;50.138;14.332;2022-12-22T14:49:02;97085.59;;;9.27;81.38
75717;BME280;64333;50.138;14.332;2022-12-22T14:51:28;97080.81;;;9.21;80.84
75717;BME280;64333;50.138;14.332;2022-12-22T14:53:56;97094.44;;;9.23;81.15
75717;BME280;64333;50.138;14.332;2022-12-22T14:56:24;97094.50;;;9.21;80.70
75717;BME280;64333;50.138;14.332;2022-12-22T14:58:50;97090.94;;;9.24;81.04
75717;BME280;64333;50.138;14.332;2022-12-22T15:01:24;97079.72;;;9.25;81.50
75717;BME280;64333;50.138;14.332;2022-12-22T15:04:01;97080.63;;;9.24;81.50
75717;BME280;64333;50.138;14.332;2022-12-22T15:06:37;97076.31;;;9.24;81.11
75717;BME280;64333;50.138;14.332;2022-12-22T15:11:28;97079.78;;;9.23;81.16
75717;BME280;64333;50.138;14.332;2022-12-22T15:13:55;97091.00;;;9.22;81.20
75717;BME280;64333;50.138;14.332;2022-12-22T15:16:21;97079.63;;;9.26;81.22
75717;BME280;64333;50.138;14.332;2022-12-22T15:18:54;97094.53;;;9.35;81.29
75717;BME280;64333;50.138;14.332;2022-12-22T15:21:20;97082.59;;;9.34;81.71
75717;BME280;64333;50.138;14.332;2022-12-22T15:23:47;97082.59;;;9.34;81.95
75717;BME280;64333;50.138;14.332;2022-12-22T15:26:12;97084.50;;;9.31;82.32
75717;BME280;64333;50.138;14.332;2022-12-22T15:28:38;97088.16;;;9.27;82.66
75717;BME280;64333;50.138;14.332;2022-12-22T15:31:13;97088.63;;;9.19;82.73